Time;durP1;ratioP1;P1;durP2;ratioP2;P2;SDS_P1;SDS_P2;PMS_P1;PMS_P2;Temp;Humidity;BMP_temperature;BMP_pressure;BME280_temperature;BME280_humidity;BME280_pressure;Samples;Min_cycle;Max_cycle;Signal;HPM_P1;HPM_P2
2022/02/12 00:00:27;;;;;;;3.78;1.20;;;;;;;7.10;47.66;99155.44;3396158;29;20040;-76
2022/02/12 00:02:08;;;;;;;5.38;1.35;;;;;;;7.08;47.32;99146.03;3396871;29;20079;-77
2022/02/12 00:03:49;;;;;;;1.80;0.90;;;;;;;7.10;47.35;99157.25;3412972;28;20046;-76
2022/02/12 00:05:31;;;;;;;1.65;1.00;;;;;;;7.10;47.14;99154.59;3415166;28;20094;-77
2022/02/12 00:07:12;;;;;;;;;;;;;;;7.21;47.36;99151.50;3416367;28;20043;-76
2022/02/12 00:08:53;;;;;;;2.42;1.77;;;;;;;7.12;47.31;99147.31;3419061;28;19961;-76
2022/02/12 00:10:35;;;;;;;3.90;0.80;;;;;;;7.08;47.35;99146.84;3415557;28;20474;-76
2022/02/12 00:12:15;;;;;;;1.17;1.08;;;;;;;7.06;47.17;99148.06;3411925;28;20037;-78
2022/02/12 00:13:57;;;;;;;3.47;1.10;;;;;;;7.07;47.11;99157.63;3413566;28;20039;-78
2022/02/12 00:15:42;;;;;;;2.53;1.30;;;;;;;7.07;47.41;99160.28;3414757;28;20045;-76
2022/02/12 00:17:24;;;;;;;1.02;0.80;;;;;;;7.04;47.25;99155.34;3399755;29;20047;-76
2022/02/12 00:19:06;;;;;;;2.63;1.00;;;;;;;7.04;47.24;99161.47;3411008;28;20046;-74
2022/02/12 00:20:48;;;;;;;2.38;0.90;;;;;;;6.90;47.27;99141.13;3415079;28;20046;-79
2022/02/12 00:22:30;;;;;;;2.53;0.95;;;;;;;6.97;47.39;99148.16;3406208;28;20046;-76
2022/02/12 00:24:11;;;;;;;1.85;0.88;;;;;;;6.98;47.31;99151.63;3414017;28;20093;-78
2022/02/12 00:25:52;;;;;;;4.05;1.02;;;;;;;6.92;47.45;99142.59;3402611;29;20174;-78
2022/02/12 00:27:33;;;;;;;2.47;0.90;;;;;;;6.95;47.46;99144.88;3399665;29;20051;-78
2022/02/12 00:29:14;;;;;;;0.80;0.68;;;;;;;6.92;47.23;99142.59;3413887;28;20047;-78
2022/02/12 00:30:55;;;;;;;4.60;1.00;;;;;;;6.95;47.38;99150.16;3416582;28;20439;-77
2022/02/12 00:32:36;;;;;;;1.20;0.88;;;;;;;6.91;47.58;99146.22;3402676;29;20047;-76
2022/02/12 00:34:17;;;;;;;3.42;0.80;;;;;;;6.89;47.45;99148.25;3399984;29;20081;-76
2022/02/12 00:35:58;;;;;;;2.05;0.90;;;;;;;6.92;47.53;99153.19;3399343;29;20060;-77
2022/02/12 00:37:39;;;;;;;1.05;0.80;;;;;;;6.87;47.50;99142.31;3389201;29;20048;-81
2022/02/12 00:39:19;;;;;;;2.08;0.90;;;;;;;6.85;47.33;99149.63;3400602;29;20048;-79
2022/02/12 00:41:00;;;;;;;2.20;0.70;;;;;;;6.85;47.32;99141.69;3410338;29;20043;-77
2022/02/12 00:42:41;;;;;;;3.17;0.90;;;;;;;6.89;47.29;99150.06;3426880;28;20078;-78
2022/02/12 00:44:25;;;;;;;1.17;0.90;;;;;;;6.88;47.28;99151.09;3429479;28;20042;-78
2022/02/12 00:46:06;;;;;;;3.08;0.80;;;;;;;6.86;47.35;99148.59;3415072;29;20612;-77
2022/02/12 00:47:46;;;;;;;4.25;0.90;;;;;;;6.83;47.30;99138.38;3426627;28;20047;-78
2022/02/12 00:49:27;;;;;;;1.00;0.77;;;;;;;6.89;47.21;99147.41;3429280;28;20093;-78
2022/02/12 00:51:08;;;;;;;2.85;1.00;;;;;;;6.84;47.18;99139.19;3420125;28;20067;-77
2022/02/12 00:52:49;;;;;;;3.30;0.98;;;;;;;6.86;47.33;99143.31;3416216;28;20047;-75
2022/02/12 00:54:32;;;;;;;4.05;1.42;;;;;;;6.86;47.29;99137.19;3415914;28;20039;-77
2022/02/12 00:56:12;;;;;;;4.75;1.60;;;;;;;6.83;47.30;99135.75;3401869;29;20052;-76
2022/02/12 00:57:53;;;;;;;3.08;1.30;;;;;;;6.89;47.13;99147.41;3399536;29;20055;-77
2022/02/12 00:59:34;;;;;;;6.88;1.48;;;;;;;6.84;47.16;99142.69;3413393;28;20035;-78
2022/02/12 01:01:14;;;;;;;5.65;1.30;;;;;;;6.83;47.15;99143.69;3424861;28;20077;-77
2022/02/12 01:02:55;;;;;;;3.20;1.20;;;;;;;6.88;47.29;99156.38;3429171;28;20576;-77
2022/02/12 01:04:36;;;;;;;2.92;1.10;;;;;;;6.89;47.17;99153.56;3429278;28;20442;-76
2022/02/12 01:06:17;;;;;;;3.45;1.13;;;;;;;6.89;47.18;99152.72;3429407;28;20066;-78
2022/02/12 01:07:58;;;;;;;3.38;1.05;;;;;;;6.88;47.02;99151.91;3430078;28;20067;-78
2022/02/12 01:09:39;;;;;;;1.75;0.93;;;;;;;6.85;47.22;99162.88;3414415;28;20055;-78
2022/02/12 01:11:20;;;;;;;8.60;1.63;;;;;;;6.87;47.19;99168.81;3388630;29;20122;-78
2022/02/12 01:13:02;;;;;;;;;;;;;;;6.96;47.12;99159.75;3400400;29;20467;-78
2022/02/12 01:14:43;;;;;;;2.78;1.00;;;;;;;6.83;47.12;99151.63;3379825;29;19919;-78
2022/02/12 01:16:23;;;;;;;1.25;0.70;;;;;;;6.79;46.85;99153.03;3399915;29;20532;-77
2022/02/12 01:18:05;;;;;;;1.38;0.90;;;;;;;6.78;47.06;99154.00;3401824;29;20467;-77
2022/02/12 01:19:49;;;;;;;2.42;1.15;;;;;;;6.82;47.10;99160.59;3375475;29;20037;-76
2022/02/12 01:21:30;;;;;;;2.78;1.15;;;;;;;6.78;47.03;99160.13;3409622;28;20111;-78
2022/02/12 01:23:10;;;;;;;2.13;0.85;;;;;;;6.78;47.21;99156.66;3426228;28;20217;-77
2022/02/12 01:24:52;;;;;;;1.63;1.10;;;;;;;6.81;47.27;99168.72;3429172;28;20430;-77
2022/02/12 01:26:33;;;;;;;1.73;0.93;;;;;;;6.75;47.25;99151.72;3428821;28;20125;-77
2022/02/12 01:28:23;;;;;;;2.22;0.98;;;;;;;6.84;47.53;99166.53;3388428;29;20517;-77
2022/02/12 01:30:08;;;;;;;2.53;0.85;;;;;;;6.79;47.38;99163.59;3408438;29;20591;-76
2022/02/12 01:31:49;;;;;;;3.47;0.95;;;;;;;6.81;47.28;99163.41;3399236;29;20556;-76
2022/02/12 01:33:30;;;;;;;1.23;0.70;;;;;;;6.77;47.50;99155.03;3398646;29;20138;-75
2022/02/12 01:35:12;;;;;;;5.28;1.30;;;;;;;6.81;47.25;99166.88;3412771;28;20515;-78
2022/02/12 01:36:52;;;;;;;2.75;1.27;;;;;;;6.69;47.44;99149.81;3401535;29;20160;-77
2022/02/12 01:38:36;;;;;;;3.83;1.00;;;;;;;6.78;47.20;99157.47;3401122;29;20069;-76
2022/02/12 01:40:21;;;;;;;9.07;1.73;;;;;;;6.79;47.25;99160.97;3377115;29;20044;-76
2022/02/12 01:42:02;;;;;;;3.17;1.13;;;;;;;6.77;47.31;99155.03;3397000;29;20368;-76
2022/02/12 01:43:43;;;;;;;2.73;1.13;;;;;;;6.70;47.44;99154.09;3388342;29;20503;-76
2022/02/12 01:45:26;;;;;;;1.45;0.93;;;;;;;6.72;47.31;99158.22;3385257;29;20350;-76
2022/02/12 01:47:09;;;;;;;4.63;1.65;;;;;;;6.77;47.57;99160.31;3359950;29;20556;-76
2022/02/12 01:48:50;;;;;;;3.47;1.33;;;;;;;6.76;47.49;99164.81;3395063;29;20578;-76
2022/02/12 01:50:34;;;;;;;1.40;0.85;;;;;;;6.77;47.34;99165.63;3405938;28;20039;-78
2022/02/12 01:52:15;;;;;;;2.33;1.05;;;;;;;6.65;47.23;99143.22;3428887;28;20045;-78
2022/02/12 01:53:56;;;;;;;3.50;0.88;;;;;;;6.76;47.51;99163.94;3401686;29;20040;-77
2022/02/12 01:55:38;;;;;;;2.15;1.13;;;;;;;6.72;47.53;99162.69;3409553;28;20047;-79
2022/02/12 01:57:21;;;;;;;2.60;0.90;;;;;;;6.76;47.52;99170.09;3400481;29;20043;-77
2022/02/12 01:59:05;;;;;;;3.00;1.10;;;;;;;6.67;47.84;99157.13;3389481;29;20460;-78
2022/02/12 02:00:49;;;;;;;4.25;1.10;;;;;;;6.71;47.53;99164.53;3399792;29;20102;-79
2022/02/12 02:02:29;;;;;;;4.47;0.90;;;;;;;6.75;47.68;99164.97;3401952;29;20504;-77
2022/02/12 02:04:10;;;;;;;2.17;0.90;;;;;;;6.73;47.55;99172.25;3387987;29;20104;-78
2022/02/12 02:05:55;;;;;;;1.52;0.70;;;;;;;6.74;47.59;99168.63;3385859;29;20405;-74
2022/02/12 02:07:40;;;;;;;2.83;1.02;;;;;;;6.76;47.77;99183.34;3374966;29;20041;-74
2022/02/12 02:09:22;;;;;;;2.25;1.00;;;;;;;6.75;47.67;99184.31;3397954;29;20100;-75
2022/02/12 02:11:03;;;;;;;4.05;1.02;;;;;;;6.74;47.72;99184.53;3408640;28;20042;-77
2022/02/12 02:12:45;;;;;;;3.33;1.30;;;;;;;6.75;47.83;99172.91;3428532;28;20121;-78
2022/02/12 02:14:41;;;;;;;2.25;1.20;;;;;;;6.77;48.03;99187.63;3428719;28;20058;-75
2022/02/12 02:16:21;;;;;;;1.02;0.93;;;;;;;6.74;48.04;99181.88;3428590;28;20046;-76
2022/02/12 02:18:02;;;;;;;3.90;0.90;;;;;;;6.75;48.01;99175.56;3413938;29;20081;-78
2022/02/12 02:19:43;;;;;;;2.63;1.23;;;;;;;6.77;48.50;99179.66;3417586;28;20127;-77
2022/02/12 02:21:24;;;;;;;1.58;0.80;;;;;;;6.75;48.38;99178.22;3412576;29;20050;-78
2022/02/12 02:23:05;;;;;;;1.42;1.30;;;;;;;6.76;48.47;99174.53;3424965;28;20053;-75
2022/02/12 02:24:45;;;;;;;1.48;0.80;;;;;;;6.77;48.74;99171.72;3428202;28;20054;-76
2022/02/12 02:26:26;;;;;;;3.67;1.35;;;;;;;6.78;48.81;99181.31;3428007;28;20057;-73
2022/02/12 02:28:07;;;;;;;3.25;0.82;;;;;;;6.75;48.79;99170.25;3428507;28;20043;-73
2022/02/12 02:29:48;;;;;;;2.78;1.90;;;;;;;6.77;48.95;99181.50;3416943;28;20116;-75
2022/02/12 02:31:28;;;;;;;1.38;0.82;;;;;;;6.77;49.11;99186.81;3411826;29;20178;-74
2022/02/12 02:33:09;;;;;;;4.22;1.08;;;;;;;6.76;48.85;99182.50;3420907;28;20035;-75
2022/02/12 02:34:52;;;;;;;;;;;;;;;6.81;48.70;99180.13;3415259;28;20051;-73
2022/02/12 02:36:33;;;;;;;3.00;1.37;;;;;;;6.80;48.76;99189.09;3387388;29;20018;-75
2022/02/12 02:38:15;;;;;;;2.53;1.10;;;;;;;6.77;48.83;99195.56;3409539;28;20297;-74
2022/02/12 02:39:56;;;;;;;1.90;0.85;;;;;;;6.73;48.96;99190.81;3414770;28;20035;-76
2022/02/12 02:41:37;;;;;;;2.17;0.88;;;;;;;6.73;48.98;99191.63;3416821;28;20438;-75
2022/02/12 02:43:18;;;;;;;2.67;1.38;;;;;;;6.75;49.03;99194.09;3428171;28;20457;-75
2022/02/12 02:44:58;;;;;;;2.33;1.02;;;;;;;6.74;49.09;99203.88;3428216;28;20049;-75
2022/02/12 02:46:39;;;;;;;1.58;1.17;;;;;;;6.74;48.97;99197.75;3413629;29;20493;-75
2022/02/12 02:48:21;;;;;;;2.05;1.17;;;;;;;6.69;49.05;99200.13;3425133;28;20039;-75
2022/02/12 02:50:02;;;;;;;2.05;1.08;;;;;;;6.71;49.02;99198.09;3413607;28;20463;-75
2022/02/12 02:55:59;;;;;;;3.08;1.10;;;;;;;6.74;49.08;99214.47;3400537;29;20048;-76
2022/02/12 02:57:40;;;;;;;1.85;0.98;;;;;;;6.76;49.17;99223.06;3414058;28;20065;-75
2022/02/12 02:59:22;;;;;;;3.85;1.15;;;;;;;6.75;49.21;99216.09;3414649;28;20511;-75
2022/02/12 03:01:09;;;;;;;4.80;1.00;;;;;;;6.77;49.15;99219.41;3414506;28;20495;-75
2022/02/12 03:02:49;;;;;;;1.65;1.10;;;;;;;6.74;49.08;99222.41;3424438;28;20545;-75
2022/02/12 03:04:31;;;;;;;3.03;0.95;;;;;;;6.75;49.16;99223.22;3400007;29;20040;-76
2022/02/12 03:06:13;;;;;;;7.72;1.30;;;;;;;6.75;49.48;99225.88;3422557;28;20043;-75
2022/02/12 03:07:53;;;;;;;1.63;1.05;;;;;;;6.74;49.53;99227.72;3427830;28;20125;-74
2022/02/12 03:09:34;;;;;;;1.13;0.70;;;;;;;6.68;49.63;99225.78;3413625;28;20094;-74
2022/02/12 03:11:15;;;;;;;3.70;1.00;;;;;;;6.71;49.83;99229.88;3411092;29;20039;-75
2022/02/12 03:12:56;;;;;;;1.63;0.90;;;;;;;6.63;49.89;99222.03;3398336;29;20050;-77
2022/02/12 03:14:40;;;;;;;3.60;1.30;;;;;;;6.42;50.07;99189.13;3397902;29;20044;-76
2022/02/12 03:16:21;;;;;;;3.28;0.90;;;;;;;6.60;50.23;99227.69;3372298;29;20059;-75
2022/02/12 03:18:02;;;;;;;2.47;0.90;;;;;;;6.63;50.20;99232.63;3392526;29;20595;-76
2022/02/12 03:19:43;;;;;;;2.83;1.08;;;;;;;6.65;50.10;99235.91;3384749;29;20048;-77
2022/02/12 03:21:24;;;;;;;2.38;1.23;;;;;;;6.64;50.32;99231.63;3409361;28;20051;-75
2022/02/12 03:23:05;;;;;;;5.72;1.25;;;;;;;6.68;50.41;99238.19;3414263;28;20488;-77
2022/02/12 03:24:46;;;;;;;1.48;0.85;;;;;;;6.65;50.37;99230.63;3414636;28;20058;-75
2022/02/12 03:26:26;;;;;;;4.47;1.90;;;;;;;6.67;50.34;99239.22;3414150;28;20047;-75
2022/02/12 03:28:07;;;;;;;1.48;1.23;;;;;;;6.64;50.41;99235.09;3414598;28;20094;-75
2022/02/12 03:29:48;;;;;;;0.88;0.88;;;;;;;6.65;50.63;99238.56;3414392;28;20093;-74
2022/02/12 03:31:28;;;;;;;1.70;1.20;;;;;;;6.65;50.59;99228.78;3418520;28;20046;-75
2022/02/12 03:33:10;;;;;;;4.70;1.00;;;;;;;6.65;50.67;99238.56;3427570;28;20655;-77
2022/02/12 03:34:56;;;;;;;2.35;0.93;;;;;;;6.67;50.85;99239.22;3413122;28;20130;-76
2022/02/12 03:36:37;;;;;;;1.42;0.80;;;;;;;6.67;50.83;99236.56;3411730;28;20051;-73
2022/02/12 03:38:21;;;;;;;3.33;0.70;;;;;;;6.67;50.88;99240.03;3412914;29;20086;-74
2022/02/12 03:40:09;;;;;;;4.50;1.10;;;;;;;6.68;50.97;99240.84;3414071;29;20137;-75
2022/02/12 03:41:55;;;;;;;2.03;0.73;;;;;;;6.67;50.86;99239.22;3394476;29;20997;-74
2022/02/12 03:43:37;;;;;;;2.92;1.17;;;;;;;6.68;50.86;99239.00;3412285;29;20059;-75
2022/02/12 03:45:22;;;;;;;2.22;0.93;;;;;;;6.68;51.09;99235.53;3413768;28;20058;-73
2022/02/12 03:47:03;;;;;;;2.25;0.90;;;;;;;6.60;50.94;99223.22;3427954;28;20426;-74
2022/02/12 03:48:43;;;;;;;3.20;1.00;;;;;;;6.66;50.99;99248.13;3429312;28;20042;-75
2022/02/12 03:50:25;;;;;;;1.70;1.00;;;;;;;6.65;50.83;99249.16;3430738;28;20421;-74
2022/02/12 03:52:06;;;;;;;4.10;1.30;;;;;;;6.64;50.95;99234.28;3426729;28;20035;-75
2022/02/12 03:53:49;;;;;;;4.95;1.77;;;;;;;6.64;51.08;99240.38;3416893;28;20525;-73
2022/02/12 03:55:31;;;;;;;4.97;1.00;;;;;;;6.63;51.03;99238.72;3416622;28;20047;-73
2022/02/12 03:57:11;;;;;;;1.80;1.08;;;;;;;6.66;50.90;99243.69;3402617;29;20062;-75
2022/02/12 03:58:52;;;;;;;1.45;0.82;;;;;;;6.67;51.00;99236.56;3414352;28;20074;-74
2022/02/12 04:00:34;;;;;;;2.35;0.80;;;;;;;6.66;51.00;99237.53;3402462;29;20055;-74
2022/02/12 04:02:15;;;;;;;1.55;0.85;;;;;;;6.66;50.79;99234.91;3414516;28;20066;-74
2022/02/12 04:03:55;;;;;;;3.90;1.17;;;;;;;6.68;50.82;99246.13;3416721;28;20418;-74
2022/02/12 04:05:37;;;;;;;3.50;1.60;;;;;;;6.63;50.72;99233.44;3416762;28;20073;-74
2022/02/12 04:07:17;;;;;;;2.72;1.13;;;;;;;6.68;50.90;99240.84;3416490;28;20502;-75
2022/02/12 04:09:01;;;;;;;3.13;1.25;;;;;;;6.68;50.92;99246.13;3416366;28;20050;-76
2022/02/12 04:10:46;;;;;;;4.70;1.40;;;;;;;6.65;50.91;99239.38;3394813;29;20091;-74
2022/02/12 04:12:26;;;;;;;4.43;1.70;;;;;;;6.67;50.89;99239.22;3413595;28;20047;-77
2022/02/12 04:14:07;;;;;;;1.90;1.50;;;;;;;6.65;50.68;99231.44;3416561;28;20589;-75
2022/02/12 04:15:48;;;;;;;2.83;1.13;;;;;;;6.69;50.65;99239.84;3416735;28;20047;-74
2022/02/12 04:17:34;;;;;;;1.75;0.90;;;;;;;6.68;50.68;99243.50;3416355;28;20047;-75
2022/02/12 04:19:15;;;;;;;3.65;1.45;;;;;;;6.69;50.73;99243.31;3416797;28;20510;-74
2022/02/12 04:20:59;;;;;;;3.03;0.80;;;;;;;6.69;50.67;99245.16;3402073;29;20130;-79
2022/02/12 04:22:41;;;;;;;1.95;1.05;;;;;;;6.68;50.82;99243.50;3367534;29;20068;-74
2022/02/12 04:24:21;;;;;;;1.48;1.02;;;;;;;6.64;50.74;99240.38;3398681;29;20051;-76
2022/02/12 04:26:05;;;;;;;3.38;1.13;;;;;;;6.68;50.91;99240.84;3403153;29;20423;-75
2022/02/12 04:27:46;;;;;;;3.95;1.30;;;;;;;6.67;50.80;99245.31;3395772;29;20139;-76
2022/02/12 04:29:27;;;;;;;1.30;0.90;;;;;;;6.66;50.72;99245.50;3403818;29;20075;-77
2022/02/12 04:31:08;;;;;;;1.38;0.95;;;;;;;6.65;50.71;99254.44;3412529;28;20121;-76
2022/02/12 04:32:51;;;;;;;3.00;1.48;;;;;;;6.66;50.75;99253.44;3416435;28;20078;-77
2022/02/12 04:34:32;;;;;;;6.53;1.02;;;;;;;6.65;50.60;99254.44;3389075;29;20044;-74
2022/02/12 04:36:12;;;;;;;2.42;1.20;;;;;;;6.66;50.73;99251.63;3411169;28;20118;-75
2022/02/12 04:37:53;;;;;;;4.18;1.20;;;;;;;6.65;50.72;99257.09;3416524;28;20154;-73
2022/02/12 04:39:34;;;;;;;1.33;1.00;;;;;;;6.66;50.70;99258.72;3416253;28;20537;-75
2022/02/12 04:41:14;;;;;;;3.90;1.23;;;;;;;6.67;50.76;99263.03;3401271;29;20051;-74
2022/02/12 04:42:55;;;;;;;2.47;1.30;;;;;;;6.67;50.53;99261.22;3413182;28;20042;-75
2022/02/12 04:44:35;;;;;;;3.92;1.27;;;;;;;6.68;50.76;99256.72;3416069;28;20051;-75
2022/02/12 04:46:17;;;;;;;5.00;1.20;;;;;;;6.68;50.80;99254.06;3416266;28;20046;-75
2022/02/12 04:47:58;;;;;;;1.08;1.00;;;;;;;6.63;50.70;99253.78;3401248;29;20050;-77
2022/02/12 04:49:39;;;;;;;2.58;1.08;;;;;;;6.67;50.83;99260.41;3413080;28;20556;-75
2022/02/12 04:51:20;;;;;;;5.38;1.10;;;;;;;6.66;50.72;99258.72;3388299;29;20092;-74
2022/02/12 04:53:01;;;;;;;3.40;1.52;;;;;;;6.67;50.86;99257.75;3396164;29;20586;-76
2022/02/12 04:54:42;;;;;;;2.70;1.00;;;;;;;6.52;50.65;99249.75;3413309;28;20154;-75
2022/02/12 04:56:25;;;;;;;2.75;1.00;;;;;;;6.62;50.70;99262.75;3402329;29;20172;-74
2022/02/12 04:58:06;;;;;;;2.47;1.05;;;;;;;6.48;50.92;99249.31;3399667;29;20526;-75
2022/02/12 04:59:49;;;;;;;1.38;0.93;;;;;;;6.62;51.01;99282.09;3399198;29;20044;-75
2022/02/12 05:01:30;;;;;;;3.50;1.23;;;;;;;6.60;51.08;99272.69;3398854;29;20046;-75
2022/02/12 05:03:12;;;;;;;1.83;0.80;;;;;;;6.60;51.04;99280.63;3413080;28;20074;-77
2022/02/12 05:04:56;;;;;;;4.95;0.88;;;;;;;6.62;50.94;99284.75;3402467;29;20066;-76
2022/02/12 05:06:39;;;;;;;2.40;1.00;;;;;;;6.64;51.02;99289.88;3398900;29;20190;-74
2022/02/12 05:08:20;;;;;;;4.32;1.50;;;;;;;6.61;51.05;99287.56;3414028;28;20039;-76
2022/02/12 05:10:01;;;;;;;1.50;1.05;;;;;;;6.64;51.15;99292.53;3401464;29;20040;-76
2022/02/12 05:11:43;;;;;;;6.07;1.42;;;;;;;6.61;51.25;99283.13;3412515;28;20051;-75
2022/02/12 05:13:24;;;;;;;1.35;0.90;;;;;;;6.60;50.97;99286.75;3415774;28;20047;-75
2022/02/12 05:15:05;;;;;;;3.95;1.05;;;;;;;6.63;51.07;99289.03;3415635;28;20467;-75
2022/02/12 05:16:46;;;;;;;3.72;1.30;;;;;;;6.65;51.13;99302.94;3401841;29;21107;-77
2022/02/12 05:18:27;;;;;;;3.47;1.33;;;;;;;6.64;51.20;99288.06;3412823;28;20050;-76
2022/02/12 05:20:08;;;;;;;5.43;1.52;;;;;;;6.63;50.87;99290.88;3415824;28;20074;-75
2022/02/12 05:21:49;;;;;;;3.78;1.15;;;;;;;6.64;51.32;99293.34;3401519;29;20050;-77
2022/02/12 05:23:30;;;;;;;1.67;1.15;;;;;;;6.64;51.32;99292.53;3412280;28;20503;-76
2022/02/12 05:25:10;;;;;;;2.05;1.10;;;;;;;6.63;51.34;99291.69;3415857;28;20414;-77
2022/02/12 05:26:52;;;;;;;3.53;0.98;;;;;;;6.64;51.23;99297.81;3415940;28;20051;-77
2022/02/12 05:28:33;;;;;;;2.10;1.90;;;;;;;6.63;51.37;99301.47;3415580;28;20117;-75
2022/02/12 05:30:14;;;;;;;1.58;0.85;;;;;;;6.65;51.35;99308.22;3415797;28;20043;-75
2022/02/12 05:31:55;;;;;;;1.90;1.23;;;;;;;6.62;51.36;99299.81;3415450;28;20569;-74
2022/02/12 05:33:37;;;;;;;2.80;1.83;;;;;;;6.67;51.38;99308.06;3387455;29;20225;-77
2022/02/12 05:35:18;;;;;;;1.70;1.00;;;;;;;6.64;51.32;99293.34;3399610;29;20098;-77
2022/02/12 05:36:59;;;;;;;2.20;1.45;;;;;;;6.67;51.63;99310.69;3401416;29;20043;-75
2022/02/12 05:38:40;;;;;;;2.00;1.20;;;;;;;6.67;51.42;99316.00;3388155;29;20159;-75
2022/02/12 05:40:21;;;;;;;3.15;1.05;;;;;;;6.68;51.27;99304.41;3399568;29;20122;-74
2022/02/12 05:42:02;;;;;;;2.30;1.27;;;;;;;6.68;51.37;99313.16;3402236;29;20055;-75
2022/02/12 05:43:43;;;;;;;1.52;1.00;;;;;;;6.67;51.31;99316.00;3403318;28;20043;-75
2022/02/12 05:45:24;;;;;;;2.67;1.08;;;;;;;6.69;51.33;99308.72;3401333;29;20052;-75
2022/02/12 05:47:04;;;;;;;2.30;1.15;;;;;;;6.69;51.32;99317.47;3412657;28;20043;-79
2022/02/12 05:48:46;;;;;;;3.03;1.05;;;;;;;6.65;51.36;99310.06;3389176;29;20044;-78
2022/02/12 05:50:29;;;;;;;2.53;1.38;;;;;;;6.69;51.61;99321.94;3360589;29;20041;-78
2022/02/12 05:52:10;;;;;;;2.00;1.25;;;;;;;6.62;51.39;99305.94;3407067;28;20051;-77
2022/02/12 05:53:50;;;;;;;4.60;1.15;;;;;;;6.65;51.74;99316.16;3416335;28;20449;-80
2022/02/12 05:55:31;;;;;;;1.95;1.58;;;;;;;6.52;51.64;99295.59;3376320;29;20044;-79
2022/02/12 05:57:12;;;;;;;4.78;1.75;;;;;;;6.52;51.60;99300.06;3371503;29;20048;-77
2022/02/12 05:58:53;;;;;;;2.92;1.08;;;;;;;6.61;51.46;99303.44;3380270;29;20095;-75
2022/02/12 06:00:34;;;;;;;4.75;1.42;;;;;;;6.50;51.44;99291.47;3402329;28;20039;-80
2022/02/12 06:02:15;;;;;;;3.90;1.55;;;;;;;6.67;51.44;99313.34;3415329;28;20071;-78
2022/02/12 06:03:55;;;;;;;2.95;1.33;;;;;;;6.70;51.57;99327.03;3400489;29;20035;-77
2022/02/12 06:05:36;;;;;;;15.10;2.10;;;;;;;6.70;51.41;99329.69;3385338;29;20040;-79
2022/02/12 06:07:18;;;;;;;3.20;1.35;;;;;;;6.65;51.50;99318.00;3383345;29;20050;-80
2022/02/12 06:09:02;;;;;;;2.53;1.60;;;;;;;6.60;51.63;99304.47;3411201;28;20043;-80
2022/02/12 06:10:43;;;;;;;1.75;1.10;;;;;;;6.59;51.38;99302.84;3378611;29;20067;-82
2022/02/12 06:12:27;;;;;;;3.50;1.45;;;;;;;6.60;51.55;99299.16;3397742;28;20055;-80
2022/02/12 06:14:08;;;;;;;3.00;1.42;;;;;;;6.77;51.33;99324.53;3413284;28;20429;-80
2022/02/12 06:15:48;;;;;;;4.22;1.30;;;;;;;6.62;51.25;99311.22;3416755;28;20055;-80
2022/02/12 06:17:29;;;;;;;2.53;1.38;;;;;;;6.74;51.17;99327.53;3401243;29;20067;-80
2022/02/12 06:19:10;;;;;;;6.07;2.50;;;;;;;6.74;51.10;99330.19;3413403;28;20099;-80
2022/02/12 06:20:51;;;;;;;8.88;2.92;;;;;;;6.64;51.07;99305.78;3402848;29;20047;-80
2022/02/12 06:22:32;;;;;;;3.13;1.40;;;;;;;6.74;51.37;99327.53;3398151;29;20040;-78
2022/02/12 06:24:13;;;;;;;3.75;1.70;;;;;;;6.81;51.36;99322.31;3412623;28;20078;-77
2022/02/12 06:25:54;;;;;;;4.63;1.52;;;;;;;6.98;51.68;99337.91;3374938;29;20064;-77
2022/02/12 06:27:35;;;;;;;2.97;1.50;;;;;;;7.34;52.43;99345.16;3406833;28;20046;-76
2022/02/12 06:29:17;;;;;;;4.57;1.33;;;;;;;7.71;53.76;99319.53;3401055;29;20083;-75
2022/02/12 06:31:01;;;;;;;1.95;1.00;;;;;;;8.02;53.89;99326.44;3384804;29;20598;-75
2022/02/12 06:32:42;;;;;;;5.18;1.20;;;;;;;8.29;53.54;99338.19;3410711;28;20038;-75
2022/02/12 06:34:23;;;;;;;2.90;1.17;;;;;;;8.48;53.37;99339.41;3415494;28;20434;-74
2022/02/12 06:36:04;;;;;;;1.92;1.30;;;;;;;8.52;52.77;99330.06;3401491;29;20138;-74
2022/02/12 06:37:44;;;;;;;4.40;1.40;;;;;;;8.61;52.79;99330.75;3412696;28;20070;-73
2022/02/12 06:39:25;;;;;;;3.78;1.40;;;;;;;8.67;52.63;99328.16;3415337;28;20047;-74
2022/02/12 06:41:06;;;;;;;3.55;1.73;;;;;;;8.71;53.10;99318.78;3387987;29;20036;-73
2022/02/12 06:42:49;;;;;;;2.15;1.13;;;;;;;8.84;52.45;99334.00;3408237;28;20055;-72
2022/02/12 06:44:29;;;;;;;2.20;1.13;;;;;;;8.90;52.23;99329.75;3414761;28;20047;-73
2022/02/12 06:46:10;;;;;;;3.97;1.25;;;;;;;8.95;52.94;99340.63;3414650;28;20482;-75
2022/02/12 06:47:51;;;;;;;2.42;1.00;;;;;;;8.99;52.84;99336.59;3414923;28;20387;-74
2022/02/12 06:49:31;;;;;;;1.65;1.13;;;;;;;8.96;52.12;99342.28;3414773;28;20122;-75
2022/02/12 06:51:15;;;;;;;2.80;0.80;;;;;;;8.91;51.97;99342.03;3410762;28;20043;-75
2022/02/12 06:52:57;;;;;;;1.70;1.05;;;;;;;8.90;51.93;99349.19;3413662;28;20039;-75
2022/02/12 06:54:38;;;;;;;5.75;1.58;;;;;;;8.91;51.54;99344.72;3414888;28;20421;-75
2022/02/12 06:56:19;;;;;;;5.78;1.10;;;;;;;8.99;51.52;99349.06;3414646;28;20043;-74
2022/02/12 06:58:00;;;;;;;3.97;1.42;;;;;;;9.02;51.52;99354.81;3414982;28;20047;-74
2022/02/12 06:59:40;;;;;;;4.00;0.90;;;;;;;9.05;51.36;99357.06;3414803;28;20127;-74
2022/02/12 07:01:23;;;;;;;2.53;1.17;;;;;;;9.10;51.52;99354.66;3414757;28;20047;-73
2022/02/12 07:03:03;;;;;;;3.70;0.90;;;;;;;9.15;51.18;99356.75;3400231;29;20047;-73
2022/02/12 07:04:45;;;;;;;6.40;0.90;;;;;;;9.18;50.93;99359.00;3411979;28;20066;-74
2022/02/12 07:06:25;;;;;;;7.53;1.10;;;;;;;9.18;50.80;99357.16;3400522;29;20048;-72
2022/02/12 07:08:06;;;;;;;2.15;0.90;;;;;;;9.20;50.94;99364.16;3398105;29;20577;-74
2022/02/12 07:09:47;;;;;;;3.90;1.35;;;;;;;9.18;50.99;99366.97;3412330;28;20043;-73
2022/02/12 07:11:27;;;;;;;3.88;1.00;;;;;;;9.17;50.73;99373.31;3414451;28;20070;-72
2022/02/12 07:13:12;;;;;;;3.47;1.30;;;;;;;9.13;50.96;99374.72;3413577;28;20088;-73
2022/02/12 07:14:53;;;;;;;2.38;0.80;;;;;;;9.11;53.17;99361.63;3400140;29;20196;-73
2022/02/12 07:16:34;;;;;;;2.42;0.90;;;;;;;9.36;53.89;99379.78;3412070;28;20070;-73
2022/02/12 07:18:15;;;;;;;3.13;1.10;;;;;;;9.46;52.50;99380.28;3415278;28;20049;-74
2022/02/12 07:19:56;;;;;;;2.90;0.80;;;;;;;9.49;51.68;99376.41;3414588;28;20066;-74
2022/02/12 07:21:36;;;;;;;3.50;1.23;;;;;;;9.56;50.99;99386.06;3414865;28;20046;-74
2022/02/12 07:23:17;;;;;;;1.73;1.00;;;;;;;9.56;50.89;99380.75;3416836;28;20133;-75
2022/02/12 07:24:58;;;;;;;3.22;1.00;;;;;;;9.67;50.68;99391.84;3415580;28;20126;-74
2022/02/12 07:26:39;;;;;;;1.95;0.95;;;;;;;9.75;51.32;99400.50;3414447;28;20070;-74
2022/02/12 07:28:20;;;;;;;3.33;1.05;;;;;;;9.89;51.53;99385.44;3399559;29;20031;-74
2022/02/12 07:30:01;;;;;;;3.42;1.80;;;;;;;10.04;50.54;99391.44;3384605;29;20048;-72
2022/02/12 07:31:41;;;;;;;2.63;1.05;;;;;;;10.15;50.33;99390.03;3409009;28;20043;-72
2022/02/12 07:33:26;;;;;;;3.72;1.13;;;;;;;10.22;49.63;99395.38;3413636;28;20035;-72
2022/02/12 07:35:09;;;;;;;2.70;1.00;;;;;;;10.19;49.21;99396.59;3400057;29;20099;-73
2022/02/12 07:36:50;;;;;;;2.58;1.20;;;;;;;10.16;48.94;99401.53;3411933;28;20054;-73
2022/02/12 07:38:31;;;;;;;2.97;0.90;;;;;;;10.07;48.79;99398.22;3414515;28;20039;-73
2022/02/12 07:40:13;;;;;;;2.22;1.30;;;;;;;10.00;48.42;99395.50;3414928;28;20046;-74
2022/02/12 07:41:54;;;;;;;5.97;1.27;;;;;;;9.96;48.59;99402.22;3400511;29;20048;-73
2022/02/12 07:43:35;;;;;;;4.47;1.13;;;;;;;9.95;48.76;99399.78;3398086;29;20063;-74
2022/02/12 07:45:19;;;;;;;3.75;1.35;;;;;;;9.94;48.27;99404.31;3411845;28;20062;-74
2022/02/12 07:47:00;;;;;;;2.38;1.23;;;;;;;9.94;48.50;99403.44;3414567;28;20043;-74
2022/02/12 07:48:42;;;;;;;3.15;1.40;;;;;;;9.92;48.42;99406.34;3399931;29;20039;-74
2022/02/12 07:50:23;;;;;;;2.55;0.90;;;;;;;10.03;48.39;99410.28;3412125;28;20051;-73
2022/02/12 07:52:04;;;;;;;3.15;1.80;;;;;;;10.38;47.74;99407.59;3400284;29;20054;-74
2022/02/12 07:53:45;;;;;;;3.25;1.10;;;;;;;10.86;47.61;99424.28;3411262;28;21841;-75
2022/02/12 07:55:26;;;;;;;5.38;1.48;;;;;;;11.72;47.21;99425.28;3413779;28;20047;-71
2022/02/12 07:57:06;;;;;;;3.38;1.10;;;;;;;12.73;46.07;99421.25;3414306;28;20054;-72
2022/02/12 07:58:48;;;;;;;4.95;1.35;;;;;;;13.28;45.17;99422.28;3414325;28;20043;-72
2022/02/12 08:00:29;;;;;;;4.60;1.73;;;;;;;13.41;44.45;99429.41;3414142;28;20497;-74
2022/02/12 08:02:10;;;;;;;2.38;1.23;;;;;;;13.31;43.69;99432.56;3413118;28;20375;-75
2022/02/12 08:03:51;;;;;;;4.43;1.25;;;;;;;13.09;43.42;99434.78;3399451;29;20181;-75
2022/02/12 08:05:31;;;;;;;1.98;1.10;;;;;;;12.87;43.15;99433.47;3397284;29;20040;-72
2022/02/12 08:07:31;;;;;;;2.72;1.17;;;;;;;12.66;43.46;99430.09;3411572;28;20056;-73